createdAt,value
2023-01-29T00:00:28.247Z,102685.03
2023-01-29T00:03:47.020Z,102681.80
2023-01-29T00:06:15.148Z,102677.38
2023-01-29T00:08:43.493Z,102673.18
2023-01-29T00:11:13.792Z,102671.36
2023-01-29T00:13:51.058Z,102670.80
2023-01-29T00:16:22.566Z,102672.37
2023-01-29T00:18:53.286Z,102679.02
2023-01-29T00:22:22.109Z,102679.48
2023-01-29T00:25:50.865Z,102674.89
2023-01-29T00:29:19.628Z,102669.65
2023-01-29T00:32:41.803Z,102673.65
2023-01-29T00:35:41.466Z,102666.20
2023-01-29T00:39:10.257Z,102659.14
2023-01-29T00:42:36.108Z,102655.17
2023-01-29T00:45:28.076Z,102654.23
2023-01-29T00:48:56.907Z,102652.05
2023-01-29T00:51:25.390Z,102650.41
2023-01-29T00:53:54.725Z,102651.48
2023-01-29T00:56:31.655Z,102647.81
2023-01-29T00:59:50.458Z,102646.96
2023-01-29T01:02:41.396Z,102642.64
2023-01-29T01:05:18.418Z,102643.95
2023-01-29T01:07:52.745Z,102646.08
2023-01-29T01:10:58.037Z,102642.75
2023-01-29T01:14:00.629Z,102637.02
2023-01-29T01:17:26.143Z,102637.55
2023-01-29T01:19:54.168Z,102639.27
2023-01-29T01:22:23.481Z,102640.16
2023-01-29T01:25:00.377Z,102641.73
2023-01-29T01:27:32.408Z,102642.58
2023-01-29T01:30:00.953Z,102643.64
2023-01-29T01:32:49.466Z,102642.75
2023-01-29T01:35:30.900Z,102641.38
2023-01-29T01:39:01.251Z,102647.66
2023-01-29T01:42:02.781Z,102647.04
2023-01-29T01:45:39.558Z,102648.88
2023-01-29T01:49:07.300Z,102646.46
2023-01-29T01:52:15.327Z,102643.52
2023-01-29T01:55:14.984Z,102646.12
2023-01-29T01:58:43.766Z,102644.89
2023-01-29T02:01:42.940Z,102648.11
2023-01-29T02:04:51.944Z,102644.54
2023-01-29T02:08:19.003Z,102646.15
2023-01-29T02:11:20.321Z,102646.73
2023-01-29T02:14:41.760Z,102649.14
2023-01-29T02:18:09.388Z,102650.85
2023-01-29T02:21:41.534Z,102643.42
2023-01-29T02:24:57.574Z,102643.06
2023-01-29T02:28:40.313Z,102643.75
2023-01-29T02:31:53.688Z,102639.95
2023-01-29T02:35:52.959Z,102629.39
2023-01-29T02:38:43.941Z,102618.62
2023-01-29T02:42:06.147Z,102616.21
2023-01-29T02:44:57.486Z,102611.86
2023-01-29T02:48:26.266Z,102606.94
2023-01-29T02:51:48.728Z,102606.20
2023-01-29T02:55:26.049Z,102601.77
2023-01-29T02:58:54.614Z,102604.67
2023-01-29T03:02:22.357Z,102599.48
2023-01-29T03:05:46.649Z,102593.27
2023-01-29T03:09:15.684Z,102586.08
2023-01-29T03:12:56.433Z,102579.36
2023-01-29T03:16:25.016Z,102576.47
2023-01-29T03:19:56.350Z,102572.33
2023-01-29T03:23:25.152Z,102575.27
2023-01-29T03:26:52.463Z,102564.49
2023-01-29T03:30:19.990Z,102549.63
2023-01-29T03:33:48.770Z,102548.98
2023-01-29T03:37:20.048Z,102551.45
2023-01-29T03:40:41.806Z,102550.20
2023-01-29T03:44:13.651Z,102556.77
2023-01-29T03:47:45.006Z,102552.48
2023-01-29T03:50:59.331Z,102554.25
2023-01-29T03:54:31.538Z,102550.28
2023-01-29T03:57:42.961Z,102543.45
2023-01-29T04:01:17.896Z,102542.05
2023-01-29T04:04:48.547Z,102542.89
2023-01-29T04:08:10.099Z,102539.50
2023-01-29T04:11:38.920Z,102539.82
2023-01-29T04:15:07.757Z,102542.18
2023-01-29T04:18:36.551Z,102539.73
2023-01-29T04:22:05.259Z,102532.98
2023-01-29T04:25:33.859Z,102528.48
2023-01-29T04:29:08.698Z,102524.10
2023-01-29T04:32:46.147Z,102519.23
2023-01-29T04:36:36.012Z,102513.34
2023-01-29T04:40:07.448Z,102512.98
2023-01-29T04:43:37.232Z,102510.61
2023-01-29T04:47:18.200Z,102498.63
2023-01-29T04:51:05.460Z,102487.54
2023-01-29T04:54:49.594Z,102475.49
2023-01-29T04:58:36.254Z,102470.05
2023-01-29T05:02:04.926Z,102478.91
2023-01-29T05:05:33.541Z,102487.02
2023-01-29T05:09:02.246Z,102488.02
2023-01-29T05:12:13.627Z,102475.70
2023-01-29T05:15:42.005Z,102468.34
2023-01-29T05:19:10.682Z,102459.73
2023-01-29T05:22:39.523Z,102454.15
2023-01-29T05:26:06.977Z,102445.39
2023-01-29T05:29:20.388Z,102442.05
2023-01-29T05:32:49.240Z,102435.40
2023-01-29T05:36:06.184Z,102427.90
2023-01-29T05:39:35.617Z,102419.09
2023-01-29T05:42:59.040Z,102425.97
2023-01-29T05:46:33.779Z,102426.06
2023-01-29T05:49:01.941Z,102428.44
2023-01-29T05:51:30.217Z,102423.75
2023-01-29T05:54:00.829Z,102423.92
2023-01-29T05:56:29.228Z,102424.79
2023-01-29T05:59:20.301Z,102420.63
2023-01-29T06:02:02.740Z,102423.38
2023-01-29T06:05:24.058Z,102422.65
2023-01-29T06:08:47.037Z,102415.77
2023-01-29T06:12:07.034Z,102406.63
2023-01-29T06:15:35.819Z,102406.38
2023-01-29T06:18:04.582Z,102396.31
2023-01-29T06:20:35.812Z,102395.96
2023-01-29T06:23:13.247Z,102395.59
2023-01-29T06:25:41.924Z,102395.04
2023-01-29T06:28:16.255Z,102395.86
2023-01-29T06:31:22.133Z,102397.33
2023-01-29T06:34:52.917Z,102389.94
2023-01-29T06:38:21.701Z,102388.36
2023-01-29T06:41:51.102Z,102390.63
2023-01-29T06:45:08.945Z,102389.80
2023-01-29T06:48:20.382Z,102388.95
2023-01-29T06:50:51.846Z,102387.41
2023-01-29T06:53:27.267Z,102388.28
2023-01-29T06:55:55.559Z,102389.48
2023-01-29T06:58:32.527Z,102390.52
2023-01-29T07:01:50.242Z,102391.20
2023-01-29T07:04:37.879Z,102380.94
2023-01-29T07:07:58.138Z,102381.43
2023-01-29T07:11:26.884Z,102374.06
2023-01-29T07:14:55.619Z,102368.63
2023-01-29T07:18:24.464Z,102369.60
2023-01-29T07:21:38.954Z,102356.75
2023-01-29T07:25:08.575Z,102360.14
2023-01-29T07:28:37.394Z,102364.89
2023-01-29T07:31:59.588Z,102363.68
2023-01-29T07:34:31.231Z,102364.73
2023-01-29T07:36:59.079Z,102366.64
2023-01-29T07:39:36.723Z,102364.39
2023-01-29T07:42:13.236Z,102362.84
2023-01-29T07:45:05.030Z,102362.90
2023-01-29T07:47:32.975Z,102364.52
2023-01-29T07:50:45.526Z,102363.70
2023-01-29T07:54:14.185Z,102359.75
2023-01-29T07:57:44.277Z,102353.06
2023-01-29T08:00:53.271Z,102353.16
2023-01-29T08:04:03.471Z,102357.27
2023-01-29T08:06:53.933Z,102354.39
2023-01-29T08:09:25.541Z,102352.09
2023-01-29T08:12:00.336Z,102348.85
2023-01-29T08:14:54.449Z,102344.89
2023-01-29T08:17:56.060Z,102344.05
2023-01-29T08:21:25.998Z,102344.27
2023-01-29T08:24:17.331Z,102335.52
2023-01-29T08:27:01.833Z,102339.54
2023-01-29T08:30:31.079Z,102338.54
2023-01-29T08:33:39.154Z,102340.73
2023-01-29T08:36:17.112Z,102341.10
2023-01-29T08:38:58.801Z,102341.14
2023-01-29T08:41:26.928Z,102339.34
2023-01-29T08:44:04.519Z,102338.05
2023-01-29T08:46:57.731Z,102341.77
2023-01-29T08:50:26.584Z,102346.14
2023-01-29T08:53:27.262Z,102355.06
2023-01-29T08:56:48.551Z,102353.89
2023-01-29T09:00:05.957Z,102354.45
2023-01-29T09:03:34.774Z,102349.48
2023-01-29T09:06:45.720Z,102341.67
2023-01-29T09:10:14.692Z,102334.60
2023-01-29T09:13:43.442Z,102339.33
2023-01-29T09:16:52.150Z,102338.89
2023-01-29T09:20:21.036Z,102342.45
2023-01-29T09:23:27.296Z,102332.49
2023-01-29T09:26:13.438Z,102338.89
2023-01-29T09:29:33.052Z,102337.43
2023-01-29T09:32:54.505Z,102337.59
2023-01-29T09:36:23.494Z,102340.72
2023-01-29T09:39:27.689Z,102334.47
2023-01-29T09:42:51.974Z,102332.90
2023-01-29T09:46:15.233Z,102322.20
2023-01-29T09:49:19.813Z,102317.95
2023-01-29T09:52:26.237Z,102317.11
2023-01-29T09:55:41.180Z,102314.12
2023-01-29T09:59:03.988Z,102309.39
2023-01-29T10:02:04.645Z,102317.79
2023-01-29T10:05:23.898Z,102317.40
2023-01-29T10:08:33.480Z,102316.29
2023-01-29T10:11:48.178Z,102319.47
2023-01-29T10:15:40.512Z,102319.31
2023-01-29T10:19:23.883Z,102315.38
2023-01-29T10:22:49.784Z,102307.59
2023-01-29T10:25:21.348Z,102299.73
2023-01-29T10:28:18.708Z,102298.58
2023-01-29T10:30:53.159Z,102297.18
2023-01-29T10:34:07.305Z,102289.14
2023-01-29T10:36:55.065Z,102284.66
2023-01-29T10:39:26.569Z,102284.44
2023-01-29T10:42:47.375Z,102280.89
2023-01-29T10:45:41.751Z,102270.70
2023-01-29T10:48:22.408Z,102265.03
2023-01-29T10:51:47.601Z,102256.41
2023-01-29T10:54:15.812Z,102249.09
2023-01-29T10:56:43.989Z,102248.70
2023-01-29T11:00:02.384Z,102246.08
2023-01-29T11:02:34.699Z,102244.89
2023-01-29T11:06:05.792Z,102237.55
2023-01-29T11:08:42.915Z,102231.48
2023-01-29T11:11:37.906Z,102221.95
2023-01-29T11:14:32.036Z,102210.39
2023-01-29T11:18:00.803Z,102210.46
2023-01-29T11:20:34.834Z,102202.61
2023-01-29T11:23:03.300Z,102194.94
2023-01-29T11:26:32.177Z,102193.55
2023-01-29T11:29:52.803Z,102183.66
2023-01-29T11:32:51.113Z,102177.67
2023-01-29T11:35:42.596Z,102177.52
2023-01-29T11:39:17.573Z,102173.09
2023-01-29T11:42:35.062Z,102170.47
2023-01-29T11:45:52.296Z,102162.27
2023-01-29T11:48:52.247Z,102165.67
2023-01-29T11:51:54.748Z,102163.18
2023-01-29T11:54:29.193Z,102154.45
2023-01-29T11:57:07.276Z,102142.13
2023-01-29T12:00:00.905Z,102134.44
2023-01-29T12:02:37.133Z,102128.32
2023-01-29T12:05:21.200Z,102120.20
2023-01-29T12:07:54.190Z,102117.86
2023-01-29T12:10:41.146Z,102112.70
2023-01-29T12:13:23.844Z,102102.14
2023-01-29T12:16:09.504Z,102095.59
2023-01-29T12:18:54.586Z,102086.59
2023-01-29T12:21:52.839Z,102077.52
2023-01-29T12:24:58.137Z,102072.94
2023-01-29T12:27:58.452Z,102066.63
2023-01-29T12:30:59.462Z,102058.92
2023-01-29T12:34:23.539Z,102055.98
2023-01-29T12:38:01.079Z,102054.23
2023-01-29T12:41:21.078Z,102043.81
2023-01-29T12:44:18.630Z,102039.27
2023-01-29T12:46:55.244Z,102034.09
2023-01-29T12:49:39.878Z,102024.61
2023-01-29T12:53:17.643Z,102023.64
2023-01-29T12:56:18.159Z,102011.14
2023-01-29T12:59:45.169Z,102012.60
2023-01-29T13:03:02.835Z,102005.66
2023-01-29T13:06:15.524Z,102002.73
2023-01-29T13:09:27.723Z,102007.92
2023-01-29T13:12:59.441Z,102007.20
2023-01-29T13:15:51.552Z,102004.29
2023-01-29T13:18:50.264Z,102004.11
2023-01-29T13:21:44.529Z,101995.80
2023-01-29T13:24:31.791Z,101990.62
2023-01-29T13:27:13.084Z,101986.73
2023-01-29T13:29:47.395Z,101980.70
2023-01-29T13:32:25.120Z,101983.29
2023-01-29T13:35:06.507Z,101985.77
2023-01-29T13:37:42.193Z,101979.99
2023-01-29T13:40:25.736Z,101971.92
2023-01-29T13:42:58.934Z,101977.16
2023-01-29T13:45:38.088Z,101972.93
2023-01-29T13:48:42.906Z,101965.98
2023-01-29T13:51:20.950Z,101962.30
2023-01-29T13:54:08.052Z,101959.14
2023-01-29T13:56:59.451Z,101952.77
2023-01-29T13:59:56.643Z,101955.30
2023-01-29T14:03:01.763Z,101948.69
2023-01-29T14:05:30.388Z,101949.57
2023-01-29T14:08:02.402Z,101944.82
2023-01-29T14:10:35.494Z,101944.71
2023-01-29T14:13:03.566Z,101942.23
2023-01-29T14:15:35.551Z,101937.85
2023-01-29T14:18:04.209Z,101931.79
2023-01-29T14:20:56.706Z,101924.13
2023-01-29T14:23:30.596Z,101917.58
2023-01-29T14:26:02.071Z,101913.33
2023-01-29T14:28:34.471Z,101912.14
2023-01-29T14:31:10.000Z,101911.25
2023-01-29T14:34:24.255Z,101913.44
2023-01-29T14:37:00.623Z,101917.04
2023-01-29T14:39:54.245Z,101913.35
2023-01-29T14:43:23.288Z,101913.80
2023-01-29T14:46:58.006Z,101912.58
2023-01-29T14:50:28.227Z,101905.39
2023-01-29T14:54:05.775Z,101905.96
2023-01-29T14:57:05.664Z,101900.63
2023-01-29T14:59:38.107Z,101898.73
2023-01-29T15:02:37.267Z,101888.70
2023-01-29T15:05:14.037Z,101892.45
2023-01-29T15:08:01.588Z,101887.87
2023-01-29T15:10:46.831Z,101889.55
2023-01-29T15:14:18.786Z,101885.08
2023-01-29T15:18:03.037Z,101884.30
2023-01-29T15:21:31.757Z,101878.03
2023-01-29T15:25:06.436Z,101874.35
2023-01-29T15:27:42.148Z,101868.82
2023-01-29T15:30:23.720Z,101869.58
2023-01-29T15:33:06.345Z,101869.70
2023-01-29T15:35:51.638Z,101867.27
2023-01-29T15:38:27.028Z,101864.93
2023-01-29T15:41:31.902Z,101862.45
2023-01-29T15:44:01.416Z,101857.23
2023-01-29T15:46:58.958Z,101853.80
2023-01-29T15:49:52.152Z,101850.84
2023-01-29T15:52:36.334Z,101842.61
2023-01-29T15:55:07.444Z,101839.36
2023-01-29T15:57:40.780Z,101832.95
2023-01-29T16:00:25.048Z,101821.46
2023-01-29T16:02:53.968Z,101820.70
2023-01-29T16:06:07.098Z,101817.85
2023-01-29T16:08:36.701Z,101821.60
2023-01-29T16:11:25.645Z,101818.28
2023-01-29T16:14:11.039Z,101817.58
2023-01-29T16:17:19.613Z,101816.63
2023-01-29T16:20:40.224Z,101808.87
2023-01-29T16:23:37.645Z,101801.48
2023-01-29T16:26:30.081Z,101799.42
2023-01-29T16:29:34.059Z,101803.31
2023-01-29T16:32:45.823Z,101804.33
2023-01-29T16:36:17.661Z,101805.16
2023-01-29T16:39:49.487Z,101813.56
2023-01-29T16:42:49.199Z,101810.91
2023-01-29T16:46:25.275Z,101813.05
2023-01-29T16:50:06.207Z,101805.84
2023-01-29T16:53:43.846Z,101798.09
2023-01-29T16:56:25.172Z,101790.77
2023-01-29T16:59:54.451Z,101775.60
2023-01-29T17:02:32.941Z,101758.11
2023-01-29T17:05:22.502Z,101750.08
2023-01-29T17:08:22.163Z,101732.93
2023-01-29T17:11:31.178Z,101741.85
2023-01-29T17:14:19.317Z,101733.81
2023-01-29T17:17:17.584Z,101746.19
2023-01-29T17:20:35.139Z,101754.20
2023-01-29T17:23:03.331Z,101765.66
2023-01-29T17:25:43.864Z,101775.95
2023-01-29T17:28:19.752Z,101784.85
2023-01-29T17:31:06.127Z,101778.54
2023-01-29T17:34:07.599Z,101772.59
2023-01-29T17:36:42.007Z,101762.85
2023-01-29T17:39:23.016Z,101753.59
2023-01-29T17:42:24.205Z,101770.58
2023-01-29T17:44:52.658Z,101769.25
2023-01-29T17:47:24.107Z,101761.73
2023-01-29T17:49:55.139Z,101761.16
2023-01-29T17:52:26.150Z,101757.48
2023-01-29T17:55:18.749Z,101754.48
2023-01-29T17:58:26.708Z,101764.58
2023-01-29T18:01:55.629Z,101766.70
2023-01-29T18:05:16.220Z,101786.63
2023-01-29T18:08:38.324Z,101804.98
2023-01-29T18:11:41.121Z,101813.14
2023-01-29T18:14:59.804Z,101819.10
2023-01-29T18:18:01.979Z,101837.92
2023-01-29T18:21:31.443Z,101862.55
2023-01-29T18:24:32.120Z,101848.41
2023-01-29T18:28:00.917Z,101834.94
2023-01-29T18:31:14.894Z,101855.72
2023-01-29T18:34:43.914Z,101850.48
2023-01-29T18:37:26.162Z,101864.80
2023-01-29T18:40:37.529Z,101868.66
2023-01-29T18:44:06.251Z,101861.89
2023-01-29T18:47:25.305Z,101863.15
2023-01-29T18:50:36.795Z,101862.10
2023-01-29T18:53:38.094Z,101857.48
2023-01-29T18:57:13.223Z,101857.73
2023-01-29T18:59:31.203Z,101851.69
2023-01-29T19:02:04.210Z,101840.19
2023-01-29T19:04:35.256Z,101835.77
2023-01-29T19:07:04.866Z,101826.07
2023-01-29T19:09:36.544Z,101821.31
2023-01-29T19:12:10.109Z,101822.41
2023-01-29T19:14:38.254Z,101823.70
2023-01-29T19:17:06.613Z,101820.05
2023-01-29T19:19:37.903Z,101817.80
2023-01-29T19:22:06.232Z,101818.70
2023-01-29T19:24:38.920Z,101818.22
2023-01-29T19:27:07.203Z,101823.48
2023-01-29T19:29:38.762Z,101829.09
2023-01-29T19:32:08.871Z,101840.48
2023-01-29T19:34:37.431Z,101825.48
2023-01-29T19:37:18.705Z,101804.64
2023-01-29T19:39:47.409Z,101795.39
2023-01-29T19:42:16.038Z,101795.16
2023-01-29T19:45:13.820Z,101795.63
2023-01-29T19:48:31.113Z,101797.55
2023-01-29T19:51:41.018Z,101782.64
2023-01-29T19:54:14.434Z,101755.80
2023-01-29T19:57:22.799Z,101746.09
2023-01-29T19:59:51.010Z,101750.85
2023-01-29T20:02:24.849Z,101753.31
2023-01-29T20:04:53.464Z,101751.00
2023-01-29T20:07:24.577Z,101744.17
2023-01-29T20:09:52.851Z,101746.76
2023-01-29T20:12:21.384Z,101748.19
2023-01-29T20:15:07.564Z,101746.80
2023-01-29T20:18:14.981Z,101756.77
2023-01-29T20:21:47.017Z,101776.73
2023-01-29T20:24:30.392Z,101777.59
2023-01-29T20:27:04.334Z,101773.56
2023-01-29T20:30:11.307Z,101777.59
2023-01-29T20:33:28.123Z,101784.45
2023-01-29T20:36:33.813Z,101780.00
2023-01-29T20:39:56.544Z,101781.67
2023-01-29T20:42:24.857Z,101783.85
2023-01-29T20:45:36.752Z,101785.04
2023-01-29T20:48:05.090Z,101790.73
2023-01-29T20:50:36.394Z,101790.20
2023-01-29T20:53:20.719Z,101797.91
2023-01-29T20:56:37.388Z,101799.61
2023-01-29T20:59:10.044Z,101797.38
2023-01-29T21:01:38.561Z,101791.91
2023-01-29T21:04:12.116Z,101790.02
2023-01-29T21:06:40.867Z,101782.15
2023-01-29T21:09:09.342Z,101777.17
2023-01-29T21:11:40.751Z,101776.36
2023-01-29T21:14:12.610Z,101762.67
2023-01-29T21:16:40.981Z,101748.70
2023-01-29T21:19:09.087Z,101738.34
2023-01-29T21:22:09.433Z,101749.86
2023-01-29T21:24:37.768Z,101754.77
2023-01-29T21:27:37.381Z,101762.88
2023-01-29T21:30:18.357Z,101756.66
2023-01-29T21:32:49.606Z,101740.95
2023-01-29T21:35:56.859Z,101742.70
2023-01-29T21:38:25.418Z,101737.11
2023-01-29T21:41:52.676Z,101731.46
2023-01-29T21:44:27.154Z,101729.19
2023-01-29T21:47:12.542Z,101728.16
2023-01-29T21:50:10.811Z,101721.84
2023-01-29T21:53:19.491Z,101721.42
2023-01-29T21:56:08.298Z,101716.43
2023-01-29T21:59:12.042Z,101711.70
2023-01-29T22:02:09.933Z,101708.58
2023-01-29T22:04:45.064Z,101711.00
2023-01-29T22:07:44.349Z,101705.59
2023-01-29T22:10:17.337Z,101707.14
2023-01-29T22:13:26.451Z,101715.52
2023-01-29T22:16:22.254Z,101717.61
2023-01-29T22:18:53.827Z,101715.58
2023-01-29T22:21:23.541Z,101717.17
2023-01-29T22:24:12.071Z,101721.20
2023-01-29T22:27:40.783Z,101728.05
2023-01-29T22:30:50.267Z,101717.64
2023-01-29T22:33:18.713Z,101718.55
2023-01-29T22:36:47.745Z,101717.58
2023-01-29T22:39:22.067Z,101711.36
2023-01-29T22:41:50.736Z,101712.63
2023-01-29T22:44:31.324Z,101718.60
2023-01-29T22:47:02.583Z,101711.17
2023-01-29T22:49:34.031Z,101701.46
2023-01-29T22:52:10.353Z,101704.96
2023-01-29T22:54:43.605Z,101708.08
2023-01-29T22:57:16.067Z,101712.52
2023-01-29T22:59:56.513Z,101713.98
2023-01-29T23:02:46.813Z,101706.39
2023-01-29T23:05:35.649Z,101702.37
2023-01-29T23:08:44.203Z,101705.16
2023-01-29T23:11:41.865Z,101708.30
2023-01-29T23:14:57.922Z,101709.40
2023-01-29T23:17:35.369Z,101699.93
2023-01-29T23:20:12.838Z,101699.73
2023-01-29T23:23:11.341Z,101702.62
2023-01-29T23:26:05.955Z,101709.68
2023-01-29T23:29:00.607Z,101704.91
2023-01-29T23:31:29.255Z,101706.23
2023-01-29T23:34:13.837Z,101708.67
2023-01-29T23:36:43.993Z,101705.69
2023-01-29T23:39:12.727Z,101698.92
2023-01-29T23:41:46.856Z,101699.02
2023-01-29T23:44:47.230Z,101698.92
2023-01-29T23:47:25.705Z,101696.77
2023-01-29T23:49:54.251Z,101698.81
2023-01-29T23:52:32.488Z,101691.71
2023-01-29T23:55:00.983Z,101696.86
2023-01-29T23:57:49.378Z,101701.43
